Time;durP1;ratioP1;P1;durP2;ratioP2;P2;SDS_P1;SDS_P2;PMS_P1;PMS_P2;Temp;Humidity;BMP_temperature;BMP_pressure;BME280_temperature;BME280_humidity;BME280_pressure;Samples;Min_cycle;Max_cycle;Signal;HPM_P1;HPM_P2
2022/05/20 00:01:21;0.00;0.00;0.62;0.00;0.00;0.62;2.40;2.20;;;26.20;38.80;;;;;;2247811;61;21032;-64
2022/05/20 00:04:06;0.00;0.00;0.62;0.00;0.00;0.62;5.63;3.00;;;26.30;38.80;;;;;;2247660;61;20411;-63
2022/05/20 00:06:53;0.00;0.00;0.62;0.00;0.00;0.62;2.83;2.23;;;26.30;38.60;;;;;;2248368;61;20772;-64
2022/05/20 00:09:42;0.00;0.00;0.62;0.00;0.00;0.62;2.63;2.17;;;26.40;38.60;;;;;;2245137;61;20963;-64
2022/05/20 00:12:29;0.00;0.00;0.62;0.00;0.00;0.62;3.40;2.43;;;26.40;38.50;;;;;;2247125;61;20360;-63
2022/05/20 00:15:23;0.00;0.00;0.62;0.00;0.00;0.62;2.47;2.17;;;26.50;38.50;;;;;;2250501;61;20450;-64
2022/05/20 00:18:09;0.00;0.00;0.62;0.00;0.00;0.62;2.63;2.10;;;26.60;38.40;;;;;;2247231;61;20379;-64
2022/05/20 00:20:56;0.00;0.00;0.62;0.00;0.00;0.62;1.87;1.67;;;26.60;38.30;;;;;;2244934;61;20488;-64
2022/05/20 00:23:42;0.00;0.00;0.62;0.00;0.00;0.62;1.93;1.73;;;26.70;38.20;;;;;;2248415;61;20419;-64
2022/05/20 00:26:34;0.00;0.00;0.62;0.00;0.00;0.62;4.50;2.77;;;26.70;38.00;;;;;;2249645;61;20435;-63
2022/05/20 00:29:24;0.00;0.00;0.62;0.00;0.00;0.62;2.63;1.90;;;26.80;38.00;;;;;;2253317;61;20379;-64
2022/05/20 00:32:13;0.00;0.00;0.62;0.00;0.00;0.62;2.30;1.90;;;26.80;37.90;;;;;;2247708;61;20796;-64
2022/05/20 00:35:04;0.00;0.00;0.62;0.00;0.00;0.62;3.17;2.30;;;26.90;37.80;;;;;;2247277;61;20387;-64
2022/05/20 00:37:51;0.00;0.00;0.62;0.00;0.00;0.62;2.17;1.97;;;26.90;37.70;;;;;;2250668;61;20767;-64
2022/05/20 00:40:37;0.00;0.00;0.62;0.00;0.00;0.62;2.87;2.10;;;27.00;37.60;;;;;;2252444;61;20399;-64
2022/05/20 00:43:35;0.00;0.00;0.62;0.00;0.00;0.62;5.30;4.80;;;27.00;37.50;;;;;;2248693;61;20367;-63
2022/05/20 00:46:23;0.00;0.00;0.62;0.00;0.00;0.62;6.40;4.40;;;27.00;37.70;;;;;;2248325;61;20447;-65
2022/05/20 00:49:13;0.00;0.00;0.62;0.00;0.00;0.62;6.10;5.50;;;27.10;37.80;;;;;;2247674;61;20422;-67
2022/05/20 00:51:58;0.00;0.00;0.62;0.00;0.00;0.62;7.27;6.57;;;27.10;37.80;;;;;;2248424;61;20441;-67
2022/05/20 00:54:47;0.00;0.00;0.62;0.00;0.00;0.62;7.47;6.77;;;27.10;37.80;;;;;;2248399;61;20380;-65
2022/05/20 00:57:38;0.00;0.00;0.62;0.00;0.00;0.62;9.03;7.07;;;27.10;37.90;;;;;;2248867;61;20372;-66
2022/05/20 01:00:27;0.00;0.00;0.62;0.00;0.00;0.62;7.40;6.67;;;27.10;37.80;;;;;;2248215;61;20427;-69
2022/05/20 01:03:15;0.00;0.00;0.62;0.00;0.00;0.62;6.40;5.80;;;27.10;37.80;;;;;;2248213;61;20363;-65
2022/05/20 01:06:01;0.00;0.00;0.62;0.00;0.00;0.62;6.87;6.17;;;27.00;37.80;;;;;;2248332;61;20932;-65
2022/05/20 01:08:46;0.00;0.00;0.62;0.00;0.00;0.62;7.20;6.53;;;27.00;37.80;;;;;;2248409;61;20363;-65
2022/05/20 01:11:31;0.00;0.00;0.62;0.00;0.00;0.62;6.10;5.50;;;27.00;37.90;;;;;;2247554;61;20399;-65
2022/05/20 01:14:20;0.00;0.00;0.62;0.00;0.00;0.62;6.70;6.10;;;27.00;37.90;;;;;;2248761;61;20491;-66
2022/05/20 01:17:06;0.00;0.00;0.62;0.00;0.00;0.62;9.23;8.30;;;27.00;37.90;;;;;;2247611;61;20360;-65
2022/05/20 01:19:53;0.00;0.00;0.62;0.00;0.00;0.62;6.93;5.67;;;27.00;37.90;;;;;;2249044;61;20905;-66
2022/05/20 01:23:00;0.00;0.00;0.62;0.00;0.00;0.62;6.93;6.23;;;27.00;37.90;;;;;;2248449;61;20415;-67
2022/05/20 01:25:47;0.00;0.00;0.62;0.00;0.00;0.62;8.40;7.23;;;27.00;37.80;;;;;;2247982;61;20387;-65
2022/05/20 01:28:34;0.00;0.00;0.62;0.00;0.00;0.62;9.43;8.30;;;26.90;37.70;;;;;;2248823;61;20423;-65
2022/05/20 01:31:18;0.00;0.00;0.62;0.00;0.00;0.62;8.93;7.73;;;26.90;37.60;;;;;;2247939;61;20391;-65
2022/05/20 01:34:03;0.00;0.00;0.62;0.00;0.00;0.62;8.73;7.23;;;26.90;37.50;;;;;;2248136;61;20403;-66
2022/05/20 01:36:47;0.00;0.00;0.62;0.00;0.00;0.62;8.00;7.00;;;26.90;37.30;;;;;;2248672;61;20929;-68
2022/05/20 01:39:33;0.00;0.00;0.62;0.00;0.00;0.62;8.80;7.90;;;26.90;37.20;;;;;;2247607;61;20410;-66
2022/05/20 01:42:25;0.00;0.00;0.62;0.00;0.00;0.62;12.37;8.73;;;26.80;37.00;;;;;;2248243;61;20446;-65
2022/05/20 01:45:14;0.00;0.00;0.62;0.00;0.00;0.62;8.83;7.87;;;26.80;36.80;;;;;;2248222;61;20379;-64
2022/05/20 01:48:09;0.00;0.00;0.62;0.00;0.00;0.62;9.73;8.50;;;26.80;36.60;;;;;;2247806;61;20376;-66
2022/05/20 01:50:56;0.00;0.00;0.62;0.00;0.00;0.62;11.97;9.33;;;26.70;36.40;;;;;;2247764;61;20901;-65
2022/05/20 01:53:46;0.00;0.00;0.62;0.00;0.00;0.62;7.90;7.10;;;26.70;36.30;;;;;;2248362;61;20367;-66
2022/05/20 01:56:38;0.00;0.00;0.62;0.00;0.00;0.62;7.30;6.60;;;26.70;36.40;;;;;;2248442;61;20967;-65
2022/05/20 01:59:28;0.00;0.00;0.62;0.00;0.00;0.62;9.90;8.10;;;26.60;36.30;;;;;;2247992;61;20921;-66
2022/05/20 02:02:24;0.00;0.00;0.62;0.00;0.00;0.62;9.13;8.30;;;26.60;36.20;;;;;;2247314;61;20446;-67
2022/05/20 02:05:24;0.00;0.00;0.62;0.00;0.00;0.62;9.93;8.93;;;26.60;36.10;;;;;;2248567;61;20790;-70
2022/05/20 02:08:14;0.00;0.00;0.62;0.00;0.00;0.62;10.57;9.57;;;26.50;36.00;;;;;;2248128;61;20368;-65
2022/05/20 02:11:04;0.00;0.00;0.62;0.00;0.00;0.62;11.47;9.87;;;26.50;35.70;;;;;;2247599;61;20455;-65
2022/05/20 02:13:57;0.00;0.00;0.62;0.00;0.00;0.62;11.90;10.30;;;26.40;35.60;;;;;;2248276;61;20451;-68
2022/05/20 02:16:48;0.00;0.00;0.62;0.00;0.00;0.62;11.00;9.23;;;26.40;35.60;;;;;;2247677;61;20423;-65
2022/05/20 02:19:38;0.00;0.00;0.62;0.00;0.00;0.62;9.10;8.20;;;26.30;35.60;;;;;;2248115;61;20407;-65
2022/05/20 02:22:27;0.00;0.00;0.62;0.00;0.00;0.62;9.97;8.80;;;26.30;35.70;;;;;;2248004;61;20479;-65
2022/05/20 02:25:17;0.00;0.00;0.62;0.00;0.00;0.62;13.40;9.70;;;26.20;35.70;;;;;;2247953;61;20399;-65
2022/05/20 02:28:09;0.00;0.00;0.62;0.00;0.00;0.62;9.63;8.63;;;26.20;35.60;;;;;;2248392;61;20435;-65
2022/05/20 02:30:58;0.00;0.00;0.62;0.00;0.00;0.62;9.57;8.03;;;26.10;35.70;;;;;;2247796;61;20360;-65
2022/05/20 02:33:43;0.00;0.00;0.62;0.00;0.00;0.62;9.33;8.43;;;26.00;35.60;;;;;;2248538;61;20371;-65
2022/05/20 02:36:33;0.00;0.00;0.62;0.00;0.00;0.62;9.03;7.93;;;26.00;35.70;;;;;;2248445;61;20427;-69
2022/05/20 02:39:18;0.00;0.00;0.62;0.00;0.00;0.62;8.63;7.73;;;26.00;35.80;;;;;;2247754;61;20508;-65
2022/05/20 02:42:03;0.00;0.00;0.62;0.00;0.00;0.62;9.63;8.53;;;26.00;35.90;;;;;;2247958;61;20431;-66
2022/05/20 02:44:49;0.00;0.00;0.62;0.00;0.00;0.62;8.60;7.70;;;25.90;35.80;;;;;;2248473;61;20387;-65
2022/05/20 02:47:36;0.00;0.00;0.62;0.00;0.00;0.62;7.37;6.63;;;25.90;35.90;;;;;;2247650;61;20428;-64
2022/05/20 02:50:21;0.00;0.00;0.62;0.00;0.00;0.62;6.70;6.00;;;25.90;35.90;;;;;;2248326;61;20372;-67
2022/05/20 02:53:05;0.00;0.00;0.62;0.00;0.00;0.62;10.03;9.00;;;25.90;36.00;;;;;;2248409;61;20368;-68
2022/05/20 02:55:50;0.00;0.00;0.62;0.00;0.00;0.62;9.10;8.30;;;25.90;35.90;;;;;;2248239;61;20971;-66
2022/05/20 03:04:43;0.00;0.00;0.62;0.00;0.00;0.62;11.87;10.77;;;25.90;35.80;;;;;;2240625;61;20755;-66
2022/05/20 03:07:28;0.00;0.00;0.62;0.00;0.00;0.62;11.93;10.70;;;25.80;35.60;;;;;;2240028;61;20396;-65
2022/05/20 03:10:13;0.00;0.00;0.62;0.00;0.00;0.62;11.43;10.13;;;25.80;35.60;;;;;;2239630;61;20414;-65
2022/05/20 03:13:02;0.00;0.00;0.62;0.00;0.00;0.62;13.43;11.33;;;25.80;35.50;;;;;;2240438;61;20431;-65
2022/05/20 03:15:47;0.00;0.00;0.62;0.00;0.00;0.62;13.30;11.97;;;25.80;35.60;;;;;;2239063;61;20396;-67
2022/05/20 03:18:31;0.00;0.00;0.62;0.00;0.00;0.62;12.80;11.37;;;25.70;35.50;;;;;;2240485;61;20393;-65
2022/05/20 03:21:18;0.00;0.00;0.62;0.00;0.00;0.62;12.63;11.27;;;25.70;35.50;;;;;;2239926;61;20385;-65
2022/05/20 03:24:05;0.00;0.00;0.62;0.00;0.00;0.62;13.33;12.03;;;25.60;35.60;;;;;;2239689;61;20369;-67
2022/05/20 03:26:50;0.00;0.00;0.62;0.00;0.00;0.62;12.23;10.70;;;25.60;35.60;;;;;;2240394;61;20457;-65
2022/05/20 03:29:35;0.00;0.00;0.62;0.00;0.00;0.62;12.33;10.50;;;25.60;35.70;;;;;;2240033;61;20413;-66
2022/05/20 03:32:19;0.00;0.00;0.62;0.00;0.00;0.62;12.03;10.37;;;25.50;35.70;;;;;;2239343;61;20361;-65
2022/05/20 03:35:06;0.00;0.00;0.62;0.00;0.00;0.62;10.97;9.40;;;25.50;35.80;;;;;;2240383;61;20380;-66
2022/05/20 03:37:52;0.00;0.00;0.62;0.00;0.00;0.62;13.00;11.80;;;25.40;35.80;;;;;;2239363;61;20366;-65
2022/05/20 03:40:36;0.00;0.00;0.62;0.00;0.00;0.62;12.77;10.63;;;25.40;35.90;;;;;;2239966;61;20460;-65
2022/05/20 03:43:21;0.00;0.00;0.62;0.00;0.00;0.62;12.27;11.00;;;25.40;35.90;;;;;;2240177;61;20821;-65
2022/05/20 03:46:05;0.00;0.00;0.62;0.00;0.00;0.62;10.90;9.80;;;25.30;35.80;;;;;;2239726;61;20525;-65
2022/05/20 03:48:50;0.00;0.00;0.62;0.00;0.00;0.62;13.83;10.33;;;25.30;35.90;;;;;;2240449;61;20365;-65
2022/05/20 03:51:35;0.00;0.00;0.62;0.00;0.00;0.62;11.90;9.70;;;25.20;36.00;;;;;;2239507;61;20825;-65
2022/05/20 03:54:25;0.00;0.00;0.62;0.00;0.00;0.62;11.50;10.40;;;25.20;36.00;;;;;;2244675;61;20460;-66
2022/05/20 03:57:09;0.00;0.00;0.62;0.00;0.00;0.62;11.80;10.60;;;25.20;36.00;;;;;;2240359;61;20875;-67
2022/05/20 03:59:54;0.00;0.00;0.62;0.00;0.00;0.62;11.17;9.70;;;25.20;36.00;;;;;;2239153;61;20401;-65
2022/05/20 04:02:38;0.00;0.00;0.62;0.00;0.00;0.62;12.60;11.40;;;25.20;36.00;;;;;;2245069;61;20933;-66
2022/05/20 04:05:23;0.00;0.00;0.62;0.00;0.00;0.62;9.83;8.83;;;25.10;35.90;;;;;;2240186;61;20392;-65
2022/05/20 04:08:08;0.00;0.00;0.62;0.00;0.00;0.62;11.93;10.83;;;25.10;35.90;;;;;;2239422;61;20438;-66
2022/05/20 04:10:54;0.00;0.00;0.62;0.00;0.00;0.62;10.13;9.23;;;25.10;36.00;;;;;;2239926;61;20357;-65
2022/05/20 04:13:39;0.00;0.00;0.62;0.00;0.00;0.62;11.90;10.53;;;25.00;36.00;;;;;;2239713;61;20416;-64
2022/05/20 04:16:24;0.00;0.00;0.62;0.00;0.00;0.62;11.80;10.60;;;25.00;36.10;;;;;;2244543;61;20445;-66
2022/05/20 04:19:08;0.00;0.00;0.62;0.00;0.00;0.62;11.53;10.03;;;25.00;36.20;;;;;;2240045;61;20369;-64
2022/05/20 04:21:56;0.00;0.00;0.62;0.00;0.00;0.62;12.37;10.50;;;24.90;36.10;;;;;;2239344;61;20373;-66
2022/05/20 04:24:41;0.00;0.00;0.62;0.00;0.00;0.62;12.10;10.90;;;24.90;36.20;;;;;;2240936;61;20369;-65
2022/05/20 04:27:27;0.00;0.00;0.62;0.00;0.00;0.62;13.60;11.80;;;24.90;36.20;;;;;;2240411;61;20894;-64
2022/05/20 04:30:13;0.00;0.00;0.62;0.00;0.00;0.62;17.37;11.50;;;24.80;36.20;;;;;;2239839;61;20416;-66
2022/05/20 04:32:58;0.00;0.00;0.62;0.00;0.00;0.62;14.13;12.63;;;24.80;36.20;;;;;;2240956;61;20682;-65
2022/05/20 04:35:42;0.00;0.00;0.62;0.00;0.00;0.62;12.83;10.93;;;24.80;36.20;;;;;;2245475;61;20460;-64
2022/05/20 04:38:27;0.00;0.00;0.62;0.00;0.00;0.62;12.23;10.90;;;24.70;36.90;;;;;;2240227;61;20389;-65
2022/05/20 04:47:24;0.00;0.00;0.62;0.00;0.00;0.62;10.40;9.30;;;24.60;36.20;;;;;;2240692;61;20410;-66
2022/05/20 04:50:09;0.00;0.00;0.62;0.00;0.00;0.62;13.03;10.37;;;24.50;36.20;;;;;;2240381;61;20365;-65
2022/05/20 04:52:54;0.00;0.00;0.62;0.00;0.00;0.62;12.70;11.43;;;24.50;36.20;;;;;;2240125;61;20438;-65
2022/05/20 04:55:38;0.00;0.00;0.62;0.00;0.00;0.62;12.43;11.00;;;24.50;36.10;;;;;;2240443;61;20437;-68
2022/05/20 04:58:23;0.00;0.00;0.62;0.00;0.00;0.62;11.87;10.50;;;24.40;36.00;;;;;;2240547;61;20372;-65
2022/05/20 05:01:09;0.00;0.00;0.62;0.00;0.00;0.62;11.30;10.30;;;24.40;36.00;;;;;;2239619;61;20510;-68
2022/05/20 05:03:54;0.00;0.00;0.62;0.00;0.00;0.62;11.50;10.40;;;24.30;36.00;;;;;;2240414;61;20373;-66
2022/05/20 05:06:38;0.00;0.00;0.62;0.00;0.00;0.62;10.20;9.20;;;24.30;36.00;;;;;;2239856;61;20474;-68
2022/05/20 05:09:23;0.00;0.00;0.62;0.00;0.00;0.62;9.83;8.83;;;24.30;36.00;;;;;;2240983;61;20894;-67
2022/05/20 05:12:10;0.00;0.00;0.62;0.00;0.00;0.62;10.00;9.10;;;24.30;35.80;;;;;;2240176;61;20417;-66
2022/05/20 05:14:54;0.00;0.00;0.62;0.00;0.00;0.62;9.47;8.57;;;24.20;35.60;;;;;;2239932;61;20514;-67
2022/05/20 05:20:47;0.00;0.00;0.62;0.00;0.00;0.62;9.90;7.13;;;24.20;35.40;;;;;;2240002;61;20394;-66
2022/05/20 05:23:31;0.00;0.00;0.62;0.00;0.00;0.62;10.43;8.50;;;24.20;35.40;;;;;;2239610;61;20405;-66
2022/05/20 05:26:16;0.00;0.00;0.62;0.00;0.00;0.62;8.73;7.93;;;24.20;35.30;;;;;;2240933;61;20393;-67
2022/05/20 05:29:01;0.00;0.00;0.62;0.00;0.00;0.62;8.90;8.00;;;24.10;35.20;;;;;;2239708;61;20434;-69
2022/05/20 05:31:46;0.00;0.00;0.62;0.00;0.00;0.62;8.60;7.73;;;24.10;35.20;;;;;;2240406;61;20409;-67
2022/05/20 05:34:33;0.00;0.00;0.62;0.00;0.00;0.62;10.70;7.77;;;24.10;35.20;;;;;;2240308;61;20406;-66
2022/05/20 05:37:18;0.00;0.00;0.62;0.00;0.00;0.62;9.87;8.70;;;24.10;35.10;;;;;;2239798;61;20428;-67
2022/05/20 05:40:04;0.00;0.00;0.62;0.00;0.00;0.62;8.70;7.90;;;24.10;35.00;;;;;;2240110;61;20890;-66
2022/05/20 05:42:50;0.00;0.00;0.62;0.00;0.00;0.62;9.10;8.20;;;24.10;35.00;;;;;;2240418;61;20783;-66
2022/05/20 05:45:35;0.00;0.00;0.62;0.00;0.00;0.62;10.40;9.30;;;24.10;34.90;;;;;;2244839;61;20385;-70
2022/05/20 05:48:20;0.00;0.00;0.62;0.00;0.00;0.62;9.80;8.87;;;24.00;34.70;;;;;;2240600;61;20898;-69
2022/05/20 05:51:06;0.00;0.00;0.62;0.00;0.00;0.62;9.97;9.00;;;24.00;34.70;;;;;;2239013;61;20361;-69
2022/05/20 05:53:50;0.00;0.00;0.62;0.00;0.00;0.62;11.30;8.40;;;24.00;34.70;;;;;;2240378;61;20382;-69
2022/05/20 05:56:36;0.00;0.00;0.62;0.00;0.00;0.62;8.40;7.70;;;24.00;34.80;;;;;;2240387;61;20384;-66
2022/05/20 05:59:20;0.00;0.00;0.62;0.00;0.00;0.62;9.77;8.90;;;24.00;34.90;;;;;;2239891;61;20364;-66
2022/05/20 06:02:05;0.00;0.00;0.62;0.00;0.00;0.62;9.50;7.50;;;23.90;34.80;;;;;;2240171;61;20386;-66
2022/05/20 06:04:51;0.00;0.00;0.62;0.00;0.00;0.62;7.23;6.63;;;23.90;34.70;;;;;;2240351;61;20480;-67
2022/05/20 06:07:37;0.00;0.00;0.62;0.00;0.00;0.62;8.60;6.50;;;23.90;34.80;;;;;;2239806;61;20365;-67
2022/05/20 06:10:22;0.00;0.00;0.62;0.00;0.00;0.62;7.43;6.70;;;23.90;34.90;;;;;;2240244;61;20420;-65
2022/05/20 06:13:08;0.00;0.00;0.62;0.00;0.00;0.62;6.80;6.10;;;23.90;35.00;;;;;;2239495;61;20361;-66
2022/05/20 06:15:55;0.00;0.00;0.62;0.00;0.00;0.62;6.47;5.63;;;23.90;35.00;;;;;;2240520;61;20384;-67
2022/05/20 06:18:40;0.00;0.00;0.62;0.00;0.00;0.62;8.40;7.60;;;23.90;34.90;;;;;;2240630;61;20408;-65
2022/05/20 06:21:26;0.00;0.00;0.62;0.00;0.00;0.62;6.13;5.63;;;23.80;34.70;;;;;;2239321;61;20539;-64
2022/05/20 06:24:12;0.00;0.00;0.62;0.00;0.00;0.62;6.80;6.20;;;23.90;34.80;;;;;;2240828;61;20357;-65
2022/05/20 06:26:56;0.00;0.00;0.62;0.00;0.00;0.62;6.43;5.80;;;23.90;34.70;;;;;;2240205;61;21042;-65
2022/05/20 06:29:41;0.00;0.00;0.62;0.00;0.00;0.62;5.83;5.23;;;23.90;34.60;;;;;;2239852;61;20437;-66
2022/05/20 06:32:26;0.00;0.00;0.62;0.00;0.00;0.62;8.80;6.33;;;23.90;34.50;;;;;;2240347;61;20370;-65
2022/05/20 06:41:19;0.00;0.00;0.62;0.00;0.00;0.62;5.57;5.07;;;23.90;34.40;;;;;;2239592;61;20447;-66
2022/05/20 06:44:05;0.00;0.00;0.62;0.00;0.00;0.62;5.13;4.50;;;23.90;34.50;;;;;;2239796;61;20408;-65
2022/05/20 06:46:52;0.00;0.00;0.62;0.00;0.00;0.62;4.10;3.73;;;23.90;34.50;;;;;;2240383;61;20385;-66
2022/05/20 06:49:36;0.00;0.00;0.62;0.00;0.00;0.62;5.53;4.93;;;23.90;34.40;;;;;;2240125;61;20369;-69
2022/05/20 06:52:21;0.00;0.00;0.62;0.00;0.00;0.62;4.90;4.50;;;23.90;34.30;;;;;;2239267;61;20766;-66
2022/05/20 06:55:07;0.00;0.00;0.62;0.00;0.00;0.62;5.40;4.77;;;24.00;34.10;;;;;;2240013;61;20385;-65
2022/05/20 06:57:53;0.00;0.00;0.62;0.00;0.00;0.62;5.60;5.10;;;24.00;34.10;;;;;;2239503;61;20781;-70
2022/05/20 07:00:38;0.00;0.00;0.62;0.00;0.00;0.62;5.00;3.60;;;24.00;34.00;;;;;;2239910;61;20471;-69
2022/05/20 07:03:23;0.00;0.00;0.62;0.00;0.00;0.62;5.53;4.93;;;24.00;34.00;;;;;;2245027;61;20421;-65
2022/05/20 07:06:09;0.00;0.00;0.62;0.00;0.00;0.62;6.87;4.80;;;24.00;33.90;;;;;;2239410;61;20953;-65
2022/05/20 07:08:54;0.00;0.00;0.62;0.00;0.00;0.62;5.97;4.10;;;24.00;33.90;;;;;;2240186;61;20781;-65
2022/05/20 07:11:39;0.00;0.00;0.62;0.00;0.00;0.62;4.10;3.60;;;24.00;33.90;;;;;;2239811;61;20369;-65
2022/05/20 07:14:25;0.00;0.00;0.62;0.00;0.00;0.62;5.10;4.60;;;24.00;33.80;;;;;;2239763;61;20906;-65
2022/05/20 07:17:15;0.00;0.00;0.62;0.00;0.00;0.62;4.97;4.20;;;24.10;33.80;;;;;;2240231;61;20377;-66
2022/05/20 07:20:00;0.00;0.00;0.62;0.00;0.00;0.62;7.17;4.37;;;24.10;33.80;;;;;;2239392;61;20433;-66
2022/05/20 07:22:44;0.00;0.00;0.62;0.00;0.00;0.62;4.30;2.93;;;24.10;33.70;;;;;;2239997;61;20485;-65
2022/05/20 07:25:29;0.00;0.00;0.62;0.00;0.00;0.62;4.30;3.70;;;24.10;33.80;;;;;;2240047;61;20486;-66
2022/05/20 07:28:14;0.00;0.00;0.62;0.00;0.00;0.62;3.20;2.90;;;24.10;33.70;;;;;;2239813;61;20474;-63
2022/05/20 07:31:00;0.00;0.00;0.62;0.00;0.00;0.62;5.13;3.80;;;24.20;33.80;;;;;;2239602;61;20365;-68
2022/05/20 07:33:45;0.00;0.00;0.62;0.00;0.00;0.62;4.90;3.20;;;24.20;33.90;;;;;;2240332;61;20385;-69
2022/05/20 07:36:29;0.00;0.00;0.62;0.00;0.00;0.62;3.80;3.30;;;24.30;34.00;;;;;;2239614;61;20401;-68
2022/05/20 07:39:14;0.00;0.00;0.62;0.00;0.00;0.62;3.97;2.93;;;24.30;33.90;;;;;;2240335;61;20369;-66
2022/05/20 07:41:59;0.00;0.00;0.62;0.00;0.00;0.62;4.00;3.00;;;24.30;33.90;;;;;;2238274;61;20377;-67
2022/05/20 07:44:44;0.00;0.00;0.62;0.00;0.00;0.62;3.47;2.73;;;24.40;34.00;;;;;;2239180;61;20374;-66
2022/05/20 07:47:31;0.00;0.00;0.62;0.00;0.00;0.62;3.00;2.63;;;24.40;34.10;;;;;;2245093;61;20365;-61
2022/05/20 07:50:18;0.00;0.00;0.62;0.00;0.00;0.62;2.70;2.50;;;24.50;34.30;;;;;;2243140;61;20405;-65
2022/05/20 07:53:20;0.00;0.00;0.62;0.00;0.00;0.62;3.73;3.20;;;24.50;34.20;;;;;;2240674;61;20421;-57
2022/05/20 07:56:15;0.00;0.00;0.62;0.00;0.00;0.62;2.27;2.07;;;24.60;34.30;;;;;;2237598;61;20388;-66
2022/05/20 07:59:09;0.00;0.00;0.62;0.00;0.00;0.62;2.60;1.90;;;24.60;34.40;;;;;;2240733;61;20413;-63
2022/05/20 08:01:57;0.00;0.00;0.62;0.00;0.00;0.62;2.97;2.60;;;24.70;34.30;;;;;;2242811;61;20445;-59
2022/05/20 08:04:57;0.00;0.00;0.62;0.00;0.00;0.62;5.10;3.90;;;24.70;34.30;;;;;;2241526;61;20409;-64
2022/05/20 08:07:46;0.00;0.00;0.62;0.00;0.00;0.62;4.60;3.47;;;24.80;34.00;;;;;;2246635;61;20934;-68
2022/05/20 08:10:35;0.00;0.00;0.62;0.00;0.00;0.62;3.47;3.17;;;24.90;33.90;;;;;;2245511;61;20400;-66
2022/05/20 08:13:22;0.00;0.00;0.62;0.00;0.00;0.62;3.90;2.73;;;24.90;34.50;;;;;;2241331;61;20357;-66
2022/05/20 08:16:08;0.00;0.00;0.62;0.00;0.00;0.62;3.93;3.03;;;25.00;33.80;;;;;;2246836;61;20457;-65
2022/05/20 08:18:55;0.00;0.00;0.62;0.00;0.00;0.62;3.20;2.40;;;25.00;33.60;;;;;;2240926;61;20373;-66
2022/05/20 08:21:45;0.00;0.00;0.62;0.00;0.00;0.62;4.67;2.70;;;25.00;33.60;;;;;;2243536;61;20385;-65
2022/05/20 08:24:33;0.00;0.00;0.62;0.00;0.00;0.62;4.73;3.17;;;25.10;33.60;;;;;;2240108;61;20450;-64
2022/05/20 08:27:19;0.00;0.00;0.62;0.00;0.00;0.62;4.73;3.10;;;25.10;33.40;;;;;;2246386;61;20819;-66
2022/05/20 08:30:09;0.00;0.00;0.62;0.00;0.00;0.62;4.20;3.67;;;25.20;33.30;;;;;;2241334;61;20764;-60
2022/05/20 08:32:56;0.00;0.00;0.62;0.00;0.00;0.62;3.63;2.83;;;25.20;33.30;;;;;;2238386;61;20369;-60
2022/05/20 08:35:43;0.00;0.00;0.62;0.00;0.00;0.62;4.70;2.57;;;25.30;33.20;;;;;;2238089;61;20927;-60
2022/05/20 08:38:34;0.00;0.00;0.62;0.00;0.00;0.62;3.50;2.70;;;25.30;33.10;;;;;;2241723;61;20373;-60
2022/05/20 08:41:27;0.00;0.00;0.62;0.00;0.00;0.62;5.30;2.77;;;25.40;33.00;;;;;;2245606;61;20945;-60
2022/05/20 08:44:23;0.00;0.00;0.62;0.00;0.00;0.62;4.97;3.13;;;25.40;32.90;;;;;;2238459;61;20413;-57
2022/05/20 08:47:21;0.00;0.00;0.62;0.00;0.00;0.62;3.20;2.73;;;25.40;32.80;;;;;;2241368;61;20361;-59
2022/05/20 08:50:13;0.00;0.00;0.62;0.00;0.00;0.62;3.60;2.80;;;25.50;32.80;;;;;;2239892;61;20450;-61
2022/05/20 08:53:00;0.00;0.00;0.62;0.00;0.00;0.62;2.20;2.00;;;25.50;32.80;;;;;;2241382;61;20366;-69
2022/05/20 08:55:48;0.00;0.00;0.62;0.00;0.00;0.62;4.00;3.10;;;25.60;32.70;;;;;;2241201;61;20425;-60
2022/05/20 08:58:37;0.00;0.00;0.62;0.00;0.00;0.62;4.50;2.80;;;25.60;32.60;;;;;;2240749;61;20459;-59
2022/05/20 09:01:30;0.00;0.00;0.62;0.00;0.00;0.62;4.40;2.70;;;25.60;32.40;;;;;;2245159;61;20379;-61
2022/05/20 09:04:22;0.00;0.00;0.62;0.00;0.00;0.62;4.20;3.10;;;25.70;32.30;;;;;;2248035;61;20403;-61
2022/05/20 09:07:11;0.00;0.00;0.62;0.00;0.00;0.62;2.90;2.60;;;25.70;32.10;;;;;;2249463;61;20949;-60
2022/05/20 09:09:59;0.00;0.00;0.62;0.00;0.00;0.62;2.77;2.27;;;25.70;31.90;;;;;;2248928;61;20395;-58
2022/05/20 09:12:48;0.00;0.00;0.62;0.00;0.00;0.62;3.77;3.00;;;25.70;31.90;;;;;;2248270;61;20359;-65
2022/05/20 09:15:43;0.00;0.00;0.62;0.00;0.00;0.62;7.60;3.00;;;25.70;31.90;;;;;;2248973;61;20388;-65
2022/05/20 09:18:37;0.00;0.00;0.62;0.00;0.00;0.62;5.17;2.97;;;25.70;31.80;;;;;;2252029;61;20414;-61
2022/05/20 09:21:33;0.00;0.00;0.62;0.00;0.00;0.62;3.43;2.80;;;25.80;31.80;;;;;;2248766;61;20391;-59
2022/05/20 09:24:21;0.00;0.00;0.62;0.00;0.00;0.62;3.60;2.27;;;25.80;31.60;;;;;;2253492;61;20376;-61
2022/05/20 09:27:10;0.00;0.00;0.62;0.00;0.00;0.62;7.03;2.47;;;25.80;31.60;;;;;;2248343;61;20364;-57
2022/05/20 09:30:00;0.00;0.00;0.62;0.00;0.00;0.62;5.33;2.60;;;25.80;31.50;;;;;;2249034;61;20430;-58
2022/05/20 09:33:03;0.00;0.00;0.62;0.00;0.00;0.62;3.77;2.77;;;25.90;31.50;;;;;;2249008;61;20951;-56
2022/05/20 09:35:57;0.00;0.00;0.62;0.00;0.00;0.62;5.13;2.80;;;25.90;31.50;;;;;;2251253;61;20411;-60
2022/05/20 09:38:44;0.00;0.00;0.62;0.00;0.00;0.62;2.67;2.40;;;25.90;31.20;;;;;;2248727;61;20492;-61
2022/05/20 09:41:31;0.00;0.00;0.62;0.00;0.00;0.62;3.03;2.33;;;26.00;31.30;;;;;;2252794;61;20394;-61
2022/05/20 09:44:19;0.00;0.00;0.62;0.00;0.00;0.62;4.77;2.87;;;26.00;31.40;;;;;;2251267;61;20372;-67
2022/05/20 09:47:18;0.00;0.00;0.62;0.00;0.00;0.62;3.80;2.80;;;26.00;31.20;;;;;;2249013;61;20379;-67
2022/05/20 09:50:22;0.00;0.00;0.62;0.00;0.00;0.62;3.50;2.70;;;26.10;31.30;;;;;;2248513;61;20368;-63
2022/05/20 09:53:23;0.00;0.00;0.62;0.00;0.00;0.62;8.73;3.87;;;26.10;31.20;;;;;;2250869;61;20397;-64
2022/05/20 09:56:28;0.00;0.00;0.62;0.00;0.00;0.62;8.73;3.77;;;26.20;30.90;;;;;;2250276;61;20415;-54
2022/05/20 09:59:36;0.00;0.00;0.62;0.00;0.00;0.62;4.70;3.07;;;26.20;30.90;;;;;;2469472;53;20405;-54
2022/05/20 10:02:28;0.00;0.00;0.62;0.00;0.00;0.62;4.27;2.90;;;26.20;30.80;;;;;;2243121;61;20424;-54
2022/05/20 10:05:23;0.00;0.00;0.62;0.00;0.00;0.62;3.33;3.03;;;26.20;30.80;;;;;;2240820;61;20394;-56
2022/05/20 10:08:20;0.00;0.00;0.62;0.00;0.00;0.62;4.33;3.77;;;26.30;30.90;;;;;;2240805;61;20397;-56
2022/05/20 10:11:13;0.00;0.00;0.62;0.00;0.00;0.62;3.70;2.93;;;26.30;30.90;;;;;;2239179;61;20389;-54
2022/05/20 10:14:04;0.00;0.00;0.62;0.00;0.00;0.62;4.43;3.60;;;26.30;30.90;;;;;;2240762;61;20443;-56
2022/05/20 10:16:57;0.00;0.00;0.62;0.00;0.00;0.62;3.90;3.23;;;26.40;30.80;;;;;;2245941;61;20401;-51
2022/05/20 10:19:52;0.00;0.00;0.62;0.00;0.00;0.62;4.00;3.43;;;26.40;30.50;;;;;;2239664;61;20369;-55
2022/05/20 10:22:53;0.00;0.00;0.62;0.00;0.00;0.62;4.00;3.60;;;26.40;30.50;;;;;;2240503;61;20421;-52
2022/05/20 10:25:47;0.00;0.00;0.62;0.00;0.00;0.62;5.83;3.20;;;26.40;30.40;;;;;;2239943;61;20426;-57
2022/05/20 10:35:13;0.00;0.00;0.62;0.00;0.00;0.62;3.60;3.20;;;26.50;30.10;;;;;;2244256;61;20490;-56
2022/05/20 10:38:29;0.00;0.00;0.62;0.00;0.00;0.62;4.47;3.30;;;26.60;30.30;;;;;;2246059;61;20444;-56
2022/05/20 10:41:30;0.00;0.00;0.62;0.00;0.00;0.62;3.40;2.80;;;26.60;30.10;;;;;;2239382;61;20389;-57
2022/05/20 10:51:34;0.00;0.00;0.62;0.00;0.00;0.62;4.70;3.83;;;26.70;30.20;;;;;;2240457;61;20413;-53
2022/05/20 10:55:05;0.00;0.00;0.62;0.00;0.00;0.62;4.50;3.83;;;26.80;30.10;;;;;;2240689;61;20370;-54
2022/05/20 10:58:36;0.00;0.00;0.62;0.00;0.00;0.62;5.37;4.37;;;26.80;30.00;;;;;;2237720;61;20372;-56
2022/05/20 11:01:39;0.00;0.00;0.62;0.00;0.00;0.62;4.80;4.20;;;26.80;29.90;;;;;;2238328;61;20420;-53
2022/05/20 11:05:02;0.00;0.00;0.62;0.00;0.00;0.62;6.13;4.63;;;26.80;29.80;;;;;;2240501;61;20861;-56
2022/05/20 11:08:15;0.00;0.00;0.62;0.00;0.00;0.62;7.90;3.93;;;26.90;29.80;;;;;;2244560;61;20370;-53
2022/05/20 11:11:26;0.00;0.00;0.62;0.00;0.00;0.62;6.10;4.07;;;26.90;29.80;;;;;;2239420;61;20918;-53
2022/05/20 11:14:50;0.00;0.00;0.62;0.00;0.00;0.62;4.50;4.10;;;27.00;29.80;;;;;;2240936;61;20459;-52
2022/05/20 11:18:27;0.00;0.00;0.62;0.00;0.00;0.62;4.63;3.70;;;27.00;29.80;;;;;;2241387;61;20372;-56
2022/05/20 11:21:45;0.00;0.00;0.62;0.00;0.00;0.62;3.63;3.10;;;27.00;29.80;;;;;;2242757;61;20454;-61
2022/05/20 11:24:57;0.00;0.00;0.62;0.00;0.00;0.62;5.53;3.07;;;27.00;30.00;;;;;;2239668;61;20543;-58
2022/05/20 11:28:47;0.00;0.00;0.62;0.00;0.00;0.62;3.17;2.77;;;27.10;30.80;;;;;;2245815;61;20428;-60
2022/05/20 11:31:48;0.00;0.00;0.62;0.00;0.00;0.62;3.87;3.13;;;27.10;30.20;;;;;;2237291;61;20457;-62
2022/05/20 11:35:17;0.00;0.00;0.62;0.00;0.00;0.62;2.83;2.40;;;27.10;30.20;;;;;;2240778;61;20396;-61
2022/05/20 11:38:31;0.00;0.00;0.62;0.00;0.00;0.62;3.13;2.83;;;27.20;30.30;;;;;;2240692;61;20420;-58
2022/05/20 11:41:31;0.00;0.00;0.62;0.00;0.00;0.62;3.27;2.40;;;27.20;30.40;;;;;;2239474;61;20364;-60
2022/05/20 11:44:50;0.00;0.00;0.62;0.00;0.00;0.62;3.13;2.70;;;27.20;30.40;;;;;;2242767;61;20405;-58